createdAt,value
2022-12-27T00:00:44.860Z,154.10
2022-12-27T00:03:12.747Z,154.33
2022-12-27T00:05:43.893Z,153.90
2022-12-27T00:08:11.794Z,154.30
2022-12-27T00:10:40.998Z,154.43
2022-12-27T00:13:08.847Z,153.97
2022-12-27T00:15:36.874Z,154.57
2022-12-27T00:18:04.759Z,153.97
2022-12-27T00:20:32.629Z,154.50
2022-12-27T00:23:01.352Z,155.10
2022-12-27T00:25:29.215Z,154.47
2022-12-27T00:27:58.426Z,154.00
2022-12-27T00:30:26.284Z,154.30
2022-12-27T00:32:54.087Z,154.57
2022-12-27T00:35:21.923Z,154.27
2022-12-27T00:37:49.735Z,154.53
2022-12-27T00:40:17.649Z,153.77
2022-12-27T00:42:45.485Z,153.83
2022-12-27T00:45:14.659Z,153.87
2022-12-27T00:47:42.455Z,153.77
2022-12-27T00:50:10.737Z,153.83
2022-12-27T00:52:38.537Z,153.33
2022-12-27T00:55:06.836Z,153.70
2022-12-27T00:57:34.640Z,153.93
2022-12-27T01:00:09.585Z,154.13
2022-12-27T01:02:39.668Z,153.90
2022-12-27T01:05:08.184Z,154.30
2022-12-27T01:07:35.967Z,153.60
2022-12-27T01:10:04.039Z,153.47
2022-12-27T01:12:31.910Z,153.40
2022-12-27T01:14:59.736Z,153.63
2022-12-27T01:17:27.553Z,153.53
2022-12-27T01:19:56.770Z,154.30
2022-12-27T01:22:24.660Z,154.93
2022-12-27T01:24:52.603Z,154.00
2022-12-27T01:27:20.441Z,154.17
2022-12-27T01:29:48.299Z,153.87
2022-12-27T01:32:16.115Z,154.20
2022-12-27T01:34:44.019Z,154.30
2022-12-27T01:37:13.173Z,154.43
2022-12-27T01:39:40.989Z,154.30
2022-12-27T01:42:34.248Z,154.00
2022-12-27T01:45:03.863Z,154.47
2022-12-27T01:47:40.675Z,153.53
2022-12-27T01:50:15.636Z,153.67
2022-12-27T01:52:48.168Z,154.10
2022-12-27T01:55:21.746Z,153.20
2022-12-27T01:57:52.426Z,154.10
2022-12-27T02:00:21.601Z,153.40
2022-12-27T02:02:52.065Z,152.20
2022-12-27T02:05:21.841Z,153.83
2022-12-27T02:08:09.618Z,153.80
2022-12-27T02:10:39.667Z,153.33
2022-12-27T02:13:07.518Z,152.77
2022-12-27T02:15:35.807Z,153.17
2022-12-27T02:18:03.734Z,153.10
2022-12-27T02:20:49.674Z,153.60
2022-12-27T02:24:05.224Z,153.10
2022-12-27T02:26:49.336Z,153.23
2022-12-27T02:29:50.197Z,153.13
2022-12-27T02:32:24.698Z,153.00
2022-12-27T02:35:01.045Z,154.10
2022-12-27T02:37:32.656Z,153.40
2022-12-27T02:40:22.506Z,153.73
2022-12-27T02:43:09.598Z,153.43
2022-12-27T02:46:03.062Z,153.63
2022-12-27T02:48:48.479Z,153.03
2022-12-27T02:51:50.253Z,152.93
2022-12-27T02:54:35.022Z,153.10
2022-12-27T02:57:12.371Z,152.50
2022-12-27T03:00:19.756Z,152.87
2022-12-27T03:03:23.949Z,153.23
2022-12-27T03:06:36.048Z,154.13
2022-12-27T03:09:34.989Z,153.77
2022-12-27T03:12:23.785Z,153.70
2022-12-27T03:15:18.497Z,153.77
2022-12-27T03:17:53.899Z,154.07
2022-12-27T03:20:40.827Z,153.53
2022-12-27T03:23:27.727Z,153.27
2022-12-27T03:25:58.927Z,153.97
2022-12-27T03:28:48.928Z,154.10
2022-12-27T03:31:38.286Z,153.67
2022-12-27T03:34:26.054Z,154.60
2022-12-27T03:37:13.475Z,153.77
2022-12-27T03:39:48.011Z,153.33
2022-12-27T03:42:39.216Z,153.17
2022-12-27T03:45:08.299Z,153.80
2022-12-27T03:47:42.479Z,154.10
2022-12-27T03:50:16.956Z,153.27
2022-12-27T03:52:49.678Z,153.77
2022-12-27T03:55:18.396Z,153.83
2022-12-27T03:57:46.436Z,153.20
2022-12-27T04:00:15.272Z,153.37
2022-12-27T04:02:44.551Z,153.93
2022-12-27T04:05:13.915Z,153.60
2022-12-27T04:07:59.108Z,153.93
2022-12-27T04:10:44.831Z,153.17
2022-12-27T04:13:30.280Z,153.20
2022-12-27T04:16:15.942Z,153.73
2022-12-27T04:19:01.457Z,153.10
2022-12-27T04:21:48.263Z,153.00
2022-12-27T04:24:33.864Z,152.97
2022-12-27T04:27:19.295Z,152.17
2022-12-27T04:30:04.763Z,152.40
2022-12-27T04:32:50.190Z,152.77
2022-12-27T04:35:18.011Z,152.97
2022-12-27T04:37:47.216Z,152.67
2022-12-27T04:40:32.767Z,152.47
2022-12-27T04:43:18.313Z,152.10
2022-12-27T04:46:03.740Z,152.60
2022-12-27T04:48:49.703Z,152.67
2022-12-27T04:51:35.174Z,152.57
2022-12-27T04:54:21.964Z,152.47
2022-12-27T04:56:49.777Z,152.60
2022-12-27T04:59:35.040Z,152.80
2022-12-27T05:02:06.063Z,152.63
2022-12-27T05:04:36.275Z,152.03
2022-12-27T05:07:19.593Z,152.47
2022-12-27T05:10:06.541Z,152.60
2022-12-27T05:12:52.057Z,152.83
2022-12-27T05:15:20.555Z,152.80
2022-12-27T05:17:48.404Z,152.97
2022-12-27T05:20:16.310Z,153.20
2022-12-27T05:23:01.536Z,152.77
2022-12-27T05:25:38.000Z,153.07
2022-12-27T05:28:08.005Z,153.13
2022-12-27T05:30:37.094Z,153.50
2022-12-27T05:33:05.597Z,153.40
2022-12-27T05:35:34.297Z,153.00
2022-12-27T05:38:02.754Z,153.57
2022-12-27T05:40:31.973Z,153.67
2022-12-27T05:43:00.328Z,153.67
2022-12-27T05:45:28.474Z,153.63
2022-12-27T05:47:56.521Z,153.77
2022-12-27T05:50:24.344Z,153.70
2022-12-27T05:52:52.192Z,155.10
2022-12-27T05:55:20.278Z,153.70
2022-12-27T05:57:49.482Z,153.90
2022-12-27T06:00:17.795Z,154.80
2022-12-27T06:02:45.818Z,153.57
2022-12-27T06:05:13.861Z,154.27
2022-12-27T06:07:41.708Z,153.53
2022-12-27T06:10:10.628Z,154.37
2022-12-27T06:12:38.929Z,154.57
2022-12-27T06:15:08.965Z,154.70
2022-12-27T06:17:36.812Z,155.33
2022-12-27T06:20:05.139Z,154.53
2022-12-27T06:22:32.972Z,154.40
2022-12-27T06:25:00.835Z,154.73
2022-12-27T06:27:28.699Z,155.57
2022-12-27T06:29:56.527Z,155.13
2022-12-27T06:32:25.685Z,155.00
2022-12-27T06:34:53.524Z,155.03
2022-12-27T06:37:21.348Z,154.53
2022-12-27T06:39:49.373Z,154.27
2022-12-27T06:42:17.242Z,155.47
2022-12-27T06:44:45.052Z,155.17
2022-12-27T06:47:12.854Z,154.50
2022-12-27T06:49:42.034Z,155.00
2022-12-27T06:52:09.851Z,155.17
2022-12-27T06:54:37.676Z,155.23
2022-12-27T06:57:05.479Z,155.03
2022-12-27T06:59:33.315Z,155.00
2022-12-27T07:02:01.316Z,154.90
2022-12-27T07:04:29.238Z,153.87
2022-12-27T07:06:58.885Z,153.20
2022-12-27T07:09:26.714Z,152.93
2022-12-27T07:11:54.557Z,151.80
2022-12-27T07:14:22.398Z,150.60
2022-12-27T07:16:50.793Z,151.10
2022-12-27T07:19:18.630Z,150.57
2022-12-27T07:21:46.896Z,150.30
2022-12-27T07:24:16.077Z,150.40
2022-12-27T07:26:43.891Z,150.57
2022-12-27T07:29:12.059Z,149.47
2022-12-27T07:31:40.920Z,149.90
2022-12-27T07:34:08.761Z,149.53
2022-12-27T07:36:39.156Z,148.60
2022-12-27T07:39:08.568Z,149.70
2022-12-27T07:41:37.981Z,149.30
2022-12-27T07:44:08.265Z,149.20
2022-12-27T07:46:36.334Z,148.23
2022-12-27T07:49:04.290Z,149.00
2022-12-27T07:51:32.159Z,148.83
2022-12-27T07:54:00.051Z,148.03
2022-12-27T07:56:29.239Z,149.17
2022-12-27T07:59:00.865Z,148.17
2022-12-27T08:01:51.003Z,147.87
2022-12-27T08:04:18.919Z,148.93
2022-12-27T08:06:47.383Z,147.97
2022-12-27T08:09:18.918Z,148.50
2022-12-27T08:11:46.743Z,147.93
2022-12-27T08:14:15.932Z,148.27
2022-12-27T08:16:43.788Z,148.60
2022-12-27T08:19:11.686Z,148.87
2022-12-27T08:21:40.476Z,148.30
2022-12-27T08:24:08.452Z,147.63
2022-12-27T08:26:36.401Z,147.57
2022-12-27T08:29:04.267Z,148.47
2022-12-27T08:31:33.469Z,147.33
2022-12-27T08:34:01.351Z,147.83
2022-12-27T08:36:54.079Z,147.83
2022-12-27T08:39:17.029Z,147.33
2022-12-27T08:41:45.234Z,147.67
2022-12-27T08:44:14.248Z,148.17
2022-12-27T08:46:43.447Z,147.20
2022-12-27T08:49:11.315Z,147.83
2022-12-27T08:51:41.408Z,148.77
2022-12-27T08:54:10.078Z,148.27
2022-12-27T08:56:38.165Z,148.73
2022-12-27T08:59:06.030Z,148.97
2022-12-27T09:01:34.010Z,149.33
2022-12-27T09:04:03.235Z,149.50
2022-12-27T09:06:31.158Z,148.77
2022-12-27T09:08:59.626Z,149.27
2022-12-27T09:11:29.311Z,149.73
2022-12-27T09:13:58.953Z,150.10
2022-12-27T09:16:27.895Z,150.83
2022-12-27T09:18:57.887Z,151.43
2022-12-27T09:21:29.691Z,151.07
2022-12-27T09:23:57.532Z,153.40
2022-12-27T09:26:28.738Z,152.30
2022-12-27T09:28:57.286Z,151.43
2022-12-27T09:31:26.391Z,152.63
2022-12-27T09:33:54.429Z,152.30
2022-12-27T09:36:24.803Z,152.60
2022-12-27T09:38:55.087Z,153.13
2022-12-27T09:44:30.081Z,152.93
2022-12-27T09:47:00.648Z,152.17
2022-12-27T09:49:37.745Z,153.07
2022-12-27T09:52:11.507Z,152.93
2022-12-27T09:54:59.488Z,153.60
2022-12-27T09:57:36.699Z,152.77
2022-12-27T10:00:07.881Z,152.20
2022-12-27T10:02:35.990Z,152.60
2022-12-27T10:05:21.563Z,152.17
2022-12-27T10:08:03.744Z,152.57
2022-12-27T10:10:42.528Z,151.93
2022-12-27T10:13:21.416Z,152.73
2022-12-27T10:15:55.961Z,152.07
2022-12-27T10:18:35.458Z,151.90
2022-12-27T10:21:09.351Z,152.93
2022-12-27T10:23:41.585Z,152.83
2022-12-27T10:26:15.784Z,152.50
2022-12-27T10:28:45.579Z,152.40
2022-12-27T10:31:17.722Z,152.30
2022-12-27T10:33:46.839Z,152.70
2022-12-27T10:36:18.723Z,152.90
2022-12-27T10:38:46.579Z,151.80
2022-12-27T10:41:28.023Z,151.13
2022-12-27T10:43:56.415Z,151.77
2022-12-27T10:46:30.681Z,151.17
2022-12-27T10:51:52.424Z,151.00
2022-12-27T10:54:24.495Z,151.20
2022-12-27T10:56:54.621Z,150.07
2022-12-27T10:59:24.907Z,150.80
2022-12-27T11:02:15.924Z,150.43
2022-12-27T11:04:58.681Z,149.87
2022-12-27T11:07:31.359Z,150.70
2022-12-27T11:10:08.273Z,150.87
2022-12-27T11:12:37.735Z,150.53
2022-12-27T11:15:18.536Z,150.40
2022-12-27T11:17:48.225Z,150.47
2022-12-27T11:20:23.018Z,151.17
2022-12-27T11:22:54.599Z,150.53
2022-12-27T11:25:23.158Z,150.43
2022-12-27T11:27:55.245Z,150.27
2022-12-27T11:30:26.509Z,150.60
2022-12-27T11:32:54.606Z,151.03
2022-12-27T11:35:24.613Z,150.47
2022-12-27T11:37:53.196Z,151.33
2022-12-27T11:40:27.690Z,150.10
2022-12-27T11:43:04.647Z,150.93
2022-12-27T11:45:39.860Z,150.50
2022-12-27T11:48:15.448Z,151.43
2022-12-27T11:50:59.813Z,151.23
2022-12-27T11:54:02.712Z,153.50
2022-12-27T11:56:33.140Z,155.40
2022-12-27T11:59:29.049Z,156.47
2022-12-27T12:02:17.769Z,155.40
2022-12-27T12:05:16.763Z,154.17
2022-12-27T12:08:15.557Z,153.60
2022-12-27T12:10:53.184Z,152.23
2022-12-27T12:13:40.623Z,151.97
2022-12-27T12:16:39.366Z,152.13
2022-12-27T12:19:21.535Z,151.57
2022-12-27T12:22:01.008Z,151.83
2022-12-27T12:24:42.852Z,151.60
2022-12-27T12:27:28.645Z,151.67
2022-12-27T12:30:16.121Z,151.97
2022-12-27T12:33:00.320Z,151.60
2022-12-27T12:35:49.618Z,151.83
2022-12-27T12:38:23.128Z,151.60
2022-12-27T12:41:13.696Z,152.00
2022-12-27T12:44:03.357Z,152.10
2022-12-27T12:46:38.089Z,151.50
2022-12-27T12:49:32.802Z,152.43
2022-12-27T12:52:16.358Z,152.27
2022-12-27T12:54:58.071Z,152.37
2022-12-27T12:57:40.380Z,152.03
2022-12-27T13:00:31.280Z,152.10
2022-12-27T13:03:30.423Z,152.03
2022-12-27T13:06:09.006Z,151.97
2022-12-27T13:08:41.910Z,152.20
2022-12-27T13:11:33.440Z,152.93
2022-12-27T13:14:16.709Z,152.63
2022-12-27T13:16:53.698Z,152.67
2022-12-27T13:19:43.994Z,152.37
2022-12-27T13:22:20.799Z,151.70
2022-12-27T13:25:11.206Z,152.50
2022-12-27T13:27:46.446Z,151.50
2022-12-27T13:30:20.953Z,151.97
2022-12-27T13:33:05.814Z,152.13
2022-12-27T13:35:50.449Z,151.83
2022-12-27T13:38:35.763Z,152.00
2022-12-27T13:41:26.468Z,151.80
2022-12-27T13:44:16.252Z,151.70
2022-12-27T13:47:26.809Z,152.60
2022-12-27T13:50:32.291Z,152.00
2022-12-27T13:53:21.553Z,151.80
2022-12-27T13:55:56.652Z,151.17
2022-12-27T13:58:59.820Z,152.37
2022-12-27T14:01:49.785Z,151.23
2022-12-27T14:04:46.631Z,151.77
2022-12-27T14:07:47.212Z,151.07
2022-12-27T14:10:23.345Z,151.70
2022-12-27T14:12:59.349Z,151.17
2022-12-27T14:15:40.774Z,151.37
2022-12-27T14:18:26.550Z,151.30
2022-12-27T14:21:06.384Z,151.27
2022-12-27T14:24:01.061Z,151.67
2022-12-27T14:27:12.317Z,152.07
2022-12-27T14:30:15.100Z,151.47
2022-12-27T14:33:18.934Z,151.30
2022-12-27T14:36:20.225Z,151.80
2022-12-27T14:39:06.119Z,151.13
2022-12-27T14:42:05.337Z,150.80
2022-12-27T14:45:16.120Z,151.23
2022-12-27T14:48:02.022Z,151.63
2022-12-27T14:50:59.568Z,150.63
2022-12-27T14:54:07.084Z,150.90
2022-12-27T14:56:43.621Z,150.53
2022-12-27T14:59:30.431Z,150.27
2022-12-27T15:02:15.491Z,151.10
2022-12-27T15:04:53.987Z,151.53
2022-12-27T15:07:59.764Z,151.20
2022-12-27T15:10:47.320Z,150.83
2022-12-27T15:13:19.766Z,150.73
2022-12-27T15:15:58.058Z,150.83
2022-12-27T15:18:48.233Z,150.83
2022-12-27T15:21:25.934Z,150.63
2022-12-27T15:23:55.791Z,151.00
2022-12-27T15:26:33.448Z,150.80
2022-12-27T15:29:17.621Z,150.27
2022-12-27T15:31:56.335Z,150.20
2022-12-27T15:34:44.915Z,150.17
2022-12-27T15:37:49.878Z,150.40
2022-12-27T15:40:29.693Z,150.57
2022-12-27T15:43:05.258Z,150.07
2022-12-27T15:45:48.896Z,150.73
2022-12-27T15:48:50.002Z,150.63
2022-12-27T15:51:30.096Z,151.00
2022-12-27T15:54:25.098Z,151.17
2022-12-27T15:57:40.492Z,150.80
2022-12-27T16:00:17.087Z,150.00
2022-12-27T16:02:56.542Z,150.40
2022-12-27T16:05:44.893Z,150.83
2022-12-27T16:08:30.556Z,150.43
2022-12-27T16:10:58.976Z,149.73
2022-12-27T16:13:43.193Z,150.17
2022-12-27T16:16:56.222Z,151.43
2022-12-27T16:19:52.381Z,152.00
2022-12-27T16:22:27.640Z,153.93
2022-12-27T16:24:57.388Z,152.93
2022-12-27T16:27:31.524Z,153.67
2022-12-27T16:30:00.577Z,154.43
2022-12-27T16:32:29.252Z,154.43
2022-12-27T16:35:12.942Z,154.90
2022-12-27T16:37:45.665Z,155.30
2022-12-27T16:40:38.996Z,155.00
2022-12-27T16:43:51.960Z,154.80
2022-12-27T16:46:44.751Z,154.90
2022-12-27T16:49:48.957Z,155.60
2022-12-27T16:52:41.577Z,155.43
2022-12-27T16:55:27.385Z,155.77
2022-12-27T16:58:21.003Z,156.23
2022-12-27T17:00:50.407Z,155.83
2022-12-27T17:03:46.237Z,156.33
2022-12-27T17:06:51.418Z,156.83
2022-12-27T17:09:42.794Z,157.47
2022-12-27T17:12:21.426Z,157.03
2022-12-27T17:14:58.512Z,157.27
2022-12-27T17:17:26.894Z,157.70
2022-12-27T17:19:59.505Z,158.17
2022-12-27T17:22:34.112Z,157.57
2022-12-27T17:25:03.929Z,157.67
2022-12-27T17:28:00.861Z,157.13
2022-12-27T17:30:39.364Z,157.30
2022-12-27T17:33:32.460Z,157.67
2022-12-27T17:36:16.583Z,157.17
2022-12-27T17:38:58.183Z,157.03
2022-12-27T17:41:53.999Z,158.43
2022-12-27T17:44:39.792Z,158.13
2022-12-27T17:47:37.972Z,157.53
2022-12-27T17:50:13.985Z,157.77
2022-12-27T17:52:59.345Z,158.30
2022-12-27T17:55:47.345Z,159.10
2022-12-27T17:58:17.211Z,158.73
2022-12-27T18:00:54.660Z,158.23
2022-12-27T18:03:27.047Z,159.47
2022-12-27T18:05:54.920Z,158.93
2022-12-27T18:08:28.082Z,157.83
2022-12-27T18:10:56.702Z,157.97
2022-12-27T18:13:27.482Z,157.33
2022-12-27T18:15:56.775Z,156.50
2022-12-27T18:18:28.986Z,156.83
2022-12-27T18:20:59.520Z,157.23
2022-12-27T18:23:28.186Z,156.40
2022-12-27T18:26:02.623Z,156.43
2022-12-27T18:28:33.715Z,156.20
2022-12-27T18:31:08.288Z,156.07
2022-12-27T18:33:42.963Z,155.67
2022-12-27T18:36:16.849Z,155.60
2022-12-27T18:38:47.890Z,155.37
2022-12-27T18:41:18.180Z,155.63
2022-12-27T18:43:59.575Z,155.53
2022-12-27T18:46:29.942Z,154.83
2022-12-27T18:48:59.344Z,156.30
2022-12-27T18:51:32.763Z,155.33
2022-12-27T18:54:01.476Z,156.03
2022-12-27T18:56:32.500Z,155.30
2022-12-27T18:59:03.500Z,154.67
2022-12-27T19:01:44.098Z,155.07
2022-12-27T19:04:27.678Z,155.27
2022-12-27T19:06:58.779Z,155.13
2022-12-27T19:09:29.578Z,155.03
2022-12-27T19:11:59.659Z,155.10
2022-12-27T19:14:35.342Z,155.67
2022-12-27T19:17:10.378Z,154.47
2022-12-27T19:19:40.407Z,155.80
2022-12-27T19:22:30.830Z,155.37
2022-12-27T19:25:00.282Z,155.13
2022-12-27T19:27:28.203Z,155.00
2022-12-27T19:29:56.020Z,155.67
2022-12-27T19:32:29.598Z,155.47
2022-12-27T19:35:01.007Z,155.67
2022-12-27T19:37:30.699Z,155.53
2022-12-27T19:39:59.603Z,154.77
2022-12-27T19:42:29.636Z,155.17
2022-12-27T19:44:57.507Z,155.83
2022-12-27T19:47:26.840Z,155.37
2022-12-27T19:49:54.700Z,155.50
2022-12-27T19:52:26.606Z,155.40
2022-12-27T19:55:01.146Z,155.47
2022-12-27T19:57:29.008Z,154.77
2022-12-27T19:59:56.868Z,155.20
2022-12-27T20:02:25.028Z,154.20
2022-12-27T20:04:53.375Z,154.80
2022-12-27T20:07:24.532Z,155.03
2022-12-27T20:09:52.488Z,155.40
2022-12-27T20:12:20.366Z,155.50
2022-12-27T20:14:48.574Z,154.47
2022-12-27T20:17:16.467Z,154.37
2022-12-27T20:19:44.283Z,154.40
2022-12-27T20:22:12.333Z,155.30
2022-12-27T20:24:41.524Z,154.27
2022-12-27T20:27:09.332Z,154.63
2022-12-27T20:29:37.343Z,155.10
2022-12-27T20:32:05.463Z,154.57
2022-12-27T20:34:33.320Z,154.03
2022-12-27T20:37:01.162Z,155.00
2022-12-27T20:39:29.026Z,154.97
2022-12-27T20:41:58.234Z,154.73
2022-12-27T20:44:27.766Z,154.93
2022-12-27T20:46:57.046Z,153.57
2022-12-27T20:49:25.024Z,154.30
2022-12-27T20:51:52.935Z,153.53
2022-12-27T20:54:20.791Z,153.70
2022-12-27T20:56:48.598Z,153.17
2022-12-27T20:59:17.781Z,154.00
2022-12-27T21:01:45.881Z,153.43
2022-12-27T21:04:13.943Z,154.07
2022-12-27T21:06:41.768Z,154.03
2022-12-27T21:09:09.788Z,153.33
2022-12-27T21:11:37.674Z,153.40
2022-12-27T21:14:05.936Z,153.40
2022-12-27T21:16:36.091Z,153.80
2022-12-27T21:19:07.020Z,153.33
2022-12-27T21:21:37.542Z,152.83
2022-12-27T21:24:07.626Z,153.07
2022-12-27T21:26:37.408Z,152.57
2022-12-27T21:29:06.897Z,152.23
2022-12-27T21:31:36.815Z,152.40
2022-12-27T21:34:05.400Z,153.37
2022-12-27T21:36:34.123Z,153.27
2022-12-27T21:39:02.752Z,153.27
2022-12-27T21:41:32.886Z,152.57
2022-12-27T21:44:01.405Z,153.03
2022-12-27T21:46:31.688Z,153.10
2022-12-27T21:49:02.533Z,151.70
2022-12-27T21:51:32.450Z,153.03
2022-12-27T21:54:00.828Z,152.47
2022-12-27T21:56:29.261Z,152.57
2022-12-27T21:58:57.518Z,152.67
2022-12-27T22:01:27.141Z,152.70
2022-12-27T22:03:56.588Z,152.90
2022-12-27T22:06:27.740Z,153.03
2022-12-27T22:08:58.537Z,152.30
2022-12-27T22:11:27.528Z,153.20
2022-12-27T22:13:55.563Z,153.20
2022-12-27T22:16:25.523Z,152.47
2022-12-27T22:18:55.793Z,153.07
2022-12-27T22:21:27.812Z,153.00
2022-12-27T22:23:57.386Z,152.90
2022-12-27T22:26:29.360Z,152.77
2022-12-27T22:28:57.774Z,152.33
2022-12-27T22:31:27.655Z,152.73
2022-12-27T22:33:55.450Z,152.23
2022-12-27T22:36:24.825Z,152.33
2022-12-27T22:38:56.633Z,152.47
2022-12-27T22:41:26.832Z,152.17
2022-12-27T22:43:56.178Z,152.83
2022-12-27T22:46:25.069Z,152.73
2022-12-27T22:48:54.415Z,151.40
2022-12-27T22:51:24.631Z,152.57
2022-12-27T22:53:54.864Z,152.77
2022-12-27T22:56:24.656Z,151.50
2022-12-27T22:58:52.641Z,152.13
2022-12-27T23:01:22.359Z,152.40
2022-12-27T23:03:50.547Z,152.10
2022-12-27T23:06:18.812Z,151.93
2022-12-27T23:08:47.192Z,152.17
2022-12-27T23:11:18.538Z,152.20
2022-12-27T23:13:47.367Z,152.23
2022-12-27T23:16:15.467Z,151.90
2022-12-27T23:18:43.446Z,152.47
2022-12-27T23:21:21.774Z,152.77
2022-12-27T23:23:52.287Z,152.57
2022-12-27T23:26:23.310Z,152.83
2022-12-27T23:28:53.178Z,152.57
2022-12-27T23:31:22.565Z,151.50
2022-12-27T23:33:50.486Z,152.13
2022-12-27T23:36:18.342Z,152.60
2022-12-27T23:38:46.418Z,152.30
2022-12-27T23:41:16.431Z,151.47
2022-12-27T23:43:54.924Z,151.70
2022-12-27T23:46:27.191Z,152.17
2022-12-27T23:48:55.490Z,152.57
2022-12-27T23:51:24.071Z,152.70
2022-12-27T23:53:52.213Z,152.47
2022-12-27T23:56:22.685Z,152.47
2022-12-27T23:58:53.790Z,152.87
